createdAt,value
2018-08-13T00:00:04.495Z,89.18
2018-08-13T00:01:04.494Z,89.08
2018-08-13T00:02:04.471Z,89.37
2018-08-13T00:03:04.770Z,88.60
2018-08-13T00:04:04.444Z,88.08
2018-08-13T00:05:04.433Z,88.70
2018-08-13T00:06:04.414Z,88.60
2018-08-13T00:07:04.454Z,89.27
2018-08-13T00:09:04.376Z,89.13
2018-08-13T00:10:04.667Z,89.80
2018-08-13T00:11:04.351Z,89.80
2018-08-13T00:12:04.332Z,89.80
2018-08-13T00:13:05.525Z,89.13
2018-08-13T00:14:04.308Z,88.27
2018-08-13T00:15:04.294Z,88.37
2018-08-13T00:16:04.288Z,88.75
2018-08-13T00:17:04.566Z,88.75
2018-08-13T00:18:04.255Z,90.09
2018-08-13T00:19:04.239Z,88.98
2018-08-13T00:20:04.229Z,89.90
2018-08-13T00:21:04.215Z,89.04
2018-08-13T00:22:04.203Z,88.94
2018-08-13T00:23:04.194Z,89.04
2018-08-13T00:24:04.481Z,88.75
2018-08-13T00:25:04.171Z,88.46
2018-08-13T00:26:04.202Z,88.46
2018-08-13T00:27:04.230Z,88.75
2018-08-13T00:28:04.121Z,88.94
2018-08-13T00:29:04.112Z,89.23
2018-08-13T00:30:04.092Z,87.79
2018-08-13T00:31:04.376Z,87.70
2018-08-13T00:32:04.369Z,87.31
2018-08-13T00:33:04.053Z,87.79
2018-08-13T00:34:04.045Z,87.50
2018-08-13T00:35:04.061Z,87.88
2018-08-13T00:36:04.017Z,88.08
2018-08-13T00:37:04.307Z,87.70
2018-08-13T00:38:04.338Z,87.12
2018-08-13T00:39:04.038Z,87.21
2018-08-13T00:40:04.021Z,87.70
2018-08-13T00:41:03.955Z,88.27
2018-08-13T00:42:03.928Z,89.13
2018-08-13T00:43:04.211Z,88.37
2018-08-13T00:44:03.896Z,88.75
2018-08-13T00:45:03.940Z,87.70
2018-08-13T00:46:03.870Z,87.70
2018-08-13T00:47:03.854Z,87.98
2018-08-13T00:48:03.846Z,87.08
2018-08-13T00:49:04.144Z,86.41
2018-08-13T00:50:03.826Z,86.41
2018-08-13T00:51:03.865Z,85.25
2018-08-13T00:52:03.806Z,84.78
2018-08-13T00:53:03.840Z,85.64
2018-08-13T00:55:04.111Z,85.54
2018-08-13T00:58:03.763Z,86.21
2018-08-13T00:59:03.710Z,85.25
2018-08-13T01:01:04.016Z,85.83
2018-08-13T01:03:03.737Z,85.64
2018-08-13T01:04:03.620Z,86.02
2018-08-13T01:05:03.754Z,85.83
2018-08-13T01:06:03.597Z,85.35
2018-08-13T01:07:03.938Z,84.68
2018-08-13T01:08:03.578Z,84.11
2018-08-13T01:09:03.614Z,84.01
2018-08-13T01:10:03.594Z,84.20
2018-08-13T01:11:03.529Z,83.44
2018-08-13T01:12:03.505Z,83.15
2018-08-13T01:13:03.844Z,82.92
2018-08-13T01:14:03.480Z,82.19
2018-08-13T01:15:03.467Z,82.15
2018-08-13T01:16:03.452Z,82.86
2018-08-13T01:17:03.435Z,82.96
2018-08-13T01:18:03.419Z,83.11
2018-08-13T01:19:03.407Z,82.96
2018-08-13T01:20:03.692Z,82.24
2018-08-13T01:21:03.389Z,82.73
2018-08-13T01:22:03.429Z,82.63
2018-08-13T01:23:03.360Z,82.34
2018-08-13T01:24:03.599Z,82.15
2018-08-13T01:25:03.324Z,82.82
2018-08-13T01:27:03.593Z,82.43
2018-08-13T01:28:03.280Z,81.77
2018-08-13T01:29:03.282Z,82.43
2018-08-13T01:30:03.258Z,82.24
2018-08-13T01:31:03.242Z,82.92
2018-08-13T01:32:03.226Z,82.24
2018-08-13T01:34:03.503Z,82.24
2018-08-13T01:36:03.176Z,82.63
2018-08-13T01:37:03.164Z,82.01
2018-08-13T01:38:03.203Z,81.05
2018-08-13T01:39:03.118Z,81.05
2018-08-13T01:40:03.110Z,82.01
2018-08-13T01:41:03.395Z,80.29
2018-08-13T01:42:03.148Z,80.67
2018-08-13T01:43:03.129Z,81.25
2018-08-13T01:45:03.036Z,81.34
2018-08-13T01:46:03.029Z,81.25
2018-08-13T01:47:03.002Z,80.67
2018-08-13T01:48:03.295Z,81.25
2018-08-13T01:49:02.976Z,81.11
2018-08-13T01:50:02.961Z,80.63
2018-08-13T01:51:02.960Z,80.63
2018-08-13T01:52:02.935Z,80.44
2018-08-13T01:53:02.920Z,81.30
2018-08-13T01:54:02.901Z,80.92
2018-08-13T01:55:03.184Z,81.11
2018-08-13T01:56:02.875Z,80.63
2018-08-13T01:57:02.860Z,80.82
2018-08-13T01:58:02.842Z,80.25
2018-08-13T01:59:02.876Z,79.87
2018-08-13T02:00:02.821Z,78.53
2018-08-13T02:01:02.803Z,77.48
2018-08-13T02:03:03.070Z,76.14
2018-08-13T02:04:02.754Z,76.90
2018-08-13T02:05:02.992Z,75.56
2018-08-13T02:06:02.772Z,74.90
2018-08-13T02:07:02.714Z,74.38
2018-08-13T02:08:02.697Z,74.57
2018-08-13T02:09:02.993Z,74.66
2018-08-13T02:10:02.723Z,74.80
2018-08-13T02:11:02.708Z,74.61
2018-08-13T02:12:02.649Z,74.70
2018-08-13T02:13:02.684Z,74.32
2018-08-13T02:14:02.617Z,74.41
2018-08-13T02:15:02.899Z,74.51
2018-08-13T02:16:02.635Z,74.57
2018-08-13T02:17:02.618Z,74.41
2018-08-13T02:18:02.603Z,74.61
2018-08-13T02:19:02.601Z,75.09
2018-08-13T02:20:02.624Z,75.27
2018-08-13T02:21:02.800Z,75.66
2018-08-13T02:22:02.495Z,75.37
2018-08-13T02:23:02.473Z,75.27
2018-08-13T02:24:02.793Z,74.99
2018-08-13T02:25:02.446Z,75.47
2018-08-13T02:26:02.424Z,75.09
2018-08-13T02:28:02.411Z,74.80
2018-08-13T02:29:02.446Z,73.90
2018-08-13T02:30:02.687Z,74.19
2018-08-13T02:31:02.372Z,74.22
2018-08-13T02:32:02.353Z,73.94
2018-08-13T02:33:02.778Z,74.38
2018-08-13T02:34:02.310Z,74.32
2018-08-13T02:35:02.363Z,75.18
2018-08-13T02:37:02.418Z,74.28
2018-08-13T02:38:02.245Z,74.61
2018-08-13T02:39:02.880Z,74.57
2018-08-13T02:40:02.223Z,74.51
2018-08-13T02:41:02.205Z,74.70
2018-08-13T02:42:02.193Z,74.51
2018-08-13T02:43:02.163Z,74.70
2018-08-13T02:44:02.158Z,73.84
2018-08-13T02:45:02.436Z,74.13
2018-08-13T02:46:02.118Z,73.52
2018-08-13T02:47:02.101Z,73.27
2018-08-13T02:48:02.089Z,72.66
2018-08-13T02:49:02.104Z,72.56
2018-08-13T02:50:02.058Z,71.51
2018-08-13T02:51:02.045Z,71.80
2018-08-13T02:52:02.331Z,70.84
2018-08-13T02:53:02.017Z,70.65
2018-08-13T02:54:02.207Z,69.79
2018-08-13T02:57:01.962Z,70.84
2018-08-13T03:00:01.918Z,72.41
2018-08-13T03:01:01.894Z,72.37
2018-08-13T03:02:01.881Z,72.28
2018-08-13T03:03:01.876Z,72.56
2018-08-13T03:04:01.928Z,72.28
2018-08-13T03:05:02.139Z,72.75
2018-08-13T03:06:02.251Z,71.89
2018-08-13T03:07:01.813Z,71.89
2018-08-13T03:08:01.789Z,71.51
2018-08-13T03:09:01.798Z,72.66
2018-08-13T03:10:01.764Z,71.99
2018-08-13T03:11:01.747Z,70.65
2018-08-13T03:12:01.724Z,70.36
2018-08-13T03:13:02.010Z,69.60
2018-08-13T03:14:01.695Z,68.55
2018-08-13T03:15:01.677Z,67.11
2018-08-13T03:16:01.687Z,66.83
2018-08-13T03:17:01.666Z,66.06
2018-08-13T03:18:01.697Z,65.01
2018-08-13T03:19:01.623Z,64.34
2018-08-13T03:20:02.017Z,65.20
2018-08-13T03:21:01.603Z,66.83
2018-08-13T03:22:01.628Z,68.07
2018-08-13T03:23:01.628Z,68.93
2018-08-13T03:24:01.551Z,69.60
2018-08-13T03:25:01.728Z,69.12
2018-08-13T03:27:01.799Z,68.74
2018-08-13T03:28:01.482Z,68.07
2018-08-13T03:29:01.465Z,67.30
2018-08-13T03:30:01.465Z,67.11
2018-08-13T03:31:01.432Z,67.21
2018-08-13T03:32:01.425Z,67.02
2018-08-13T03:33:01.410Z,66.92
2018-08-13T03:34:01.692Z,66.54
2018-08-13T03:35:01.672Z,66.92
2018-08-13T03:36:01.355Z,67.49
2018-08-13T03:37:01.351Z,67.11
2018-08-13T03:38:01.323Z,67.11
2018-08-13T03:39:01.310Z,67.40
2018-08-13T03:40:01.701Z,68.07
2018-08-13T03:41:01.280Z,67.30
2018-08-13T03:42:02.014Z,67.11
2018-08-13T03:43:01.264Z,66.73
2018-08-13T03:44:01.235Z,66.16
2018-08-13T03:45:01.224Z,65.97
2018-08-13T03:46:01.509Z,65.30
2018-08-13T03:47:01.195Z,64.43
2018-08-13T03:49:01.194Z,64.25
2018-08-13T03:50:01.162Z,63.39
2018-08-13T03:52:01.114Z,63.10
2018-08-13T03:54:01.112Z,62.62
2018-08-13T03:55:01.067Z,63.00
2018-08-13T03:56:01.062Z,63.57
2018-08-13T03:58:01.229Z,64.34
2018-08-13T03:59:01.008Z,64.43
2018-08-13T04:00:01.296Z,63.96
2018-08-13T04:01:00.980Z,64.05
2018-08-13T04:02:00.954Z,64.34
2018-08-13T04:03:00.954Z,64.34
2018-08-13T04:04:00.935Z,64.25
2018-08-13T04:05:00.919Z,65.20
2018-08-13T04:06:01.266Z,65.68
2018-08-13T04:07:00.892Z,66.06
2018-08-13T04:08:00.865Z,66.25
2018-08-13T04:09:00.866Z,66.73
2018-08-13T04:10:00.851Z,67.97
2018-08-13T04:12:00.805Z,68.84
2018-08-13T04:13:01.127Z,69.12
2018-08-13T04:14:00.770Z,69.12
2018-08-13T04:15:00.766Z,69.41
2018-08-13T04:16:00.792Z,69.02
2018-08-13T04:17:00.747Z,69.50
2018-08-13T04:18:00.760Z,68.93
2018-08-13T04:19:00.782Z,69.21
2018-08-13T04:20:01.065Z,68.55
2018-08-13T04:21:00.804Z,68.13
2018-08-13T04:22:00.716Z,68.23
2018-08-13T04:24:00.627Z,67.75
2018-08-13T04:25:00.712Z,66.70
2018-08-13T04:26:00.591Z,66.99
2018-08-13T04:27:00.875Z,66.89
2018-08-13T04:28:00.621Z,67.08
2018-08-13T04:29:00.564Z,66.83
2018-08-13T04:30:00.533Z,66.79
2018-08-13T04:31:00.609Z,66.92
2018-08-13T04:32:00.553Z,67.02
2018-08-13T04:33:00.509Z,66.54
2018-08-13T04:34:01.103Z,66.92
2018-08-13T04:35:00.450Z,66.16
2018-08-13T04:36:00.517Z,65.87
2018-08-13T04:37:00.446Z,65.77
2018-08-13T04:38:00.496Z,66.63
2018-08-13T04:39:00.535Z,66.25
2018-08-13T04:40:00.533Z,66.06
2018-08-13T04:41:00.666Z,65.87
2018-08-13T04:42:01.603Z,65.48
2018-08-13T04:43:00.340Z,64.82
2018-08-13T04:44:00.319Z,64.25
2018-08-13T04:46:00.409Z,63.39
2018-08-13T04:47:00.326Z,62.90
2018-08-13T04:49:00.619Z,62.84
2018-08-13T04:50:00.225Z,62.33
2018-08-13T04:51:00.268Z,62.33
2018-08-13T04:52:00.205Z,61.98
2018-08-13T04:54:00.220Z,61.79
2018-08-13T04:56:00.425Z,61.31
2018-08-13T04:57:04.420Z,61.51
2018-08-13T05:01:00.082Z,61.60
2018-08-13T05:02:00.106Z,61.60
2018-08-13T05:03:00.098Z,61.31
2018-08-13T05:04:01.516Z,61.60
2018-08-13T05:05:00.070Z,61.60
2018-08-13T05:06:00.061Z,61.60
2018-08-13T05:07:00.017Z,61.22
2018-08-13T05:09:00.331Z,61.12
2018-08-13T05:10:00.168Z,60.86
2018-08-13T05:11:00.200Z,61.15
2018-08-13T05:11:59.912Z,61.05
2018-08-13T05:12:59.874Z,61.15
2018-08-13T05:15:59.828Z,63.26
2018-08-13T05:17:59.797Z,64.12
2018-08-13T05:18:59.781Z,64.88
2018-08-13T05:19:59.818Z,65.84
2018-08-13T05:20:59.748Z,66.41
2018-08-13T05:21:59.737Z,67.76
2018-08-13T05:23:00.069Z,68.80
2018-08-13T05:24:00.936Z,69.76
2018-08-13T05:25:03.065Z,69.76
2018-08-13T05:25:59.680Z,69.03
2018-08-13T05:27:59.813Z,68.94
2018-08-13T05:29:04.816Z,68.74
2018-08-13T05:30:00.107Z,68.65
2018-08-13T05:30:59.806Z,69.70
2018-08-13T05:31:59.722Z,68.84
2018-08-13T05:32:59.590Z,69.32
2018-08-13T05:33:59.570Z,68.30
2018-08-13T05:34:59.603Z,67.82
2018-08-13T05:35:59.837Z,67.25
2018-08-13T05:36:59.551Z,67.15
2018-08-13T05:37:59.515Z,66.19
2018-08-13T05:38:59.513Z,67.05
2018-08-13T05:39:59.481Z,67.25
2018-08-13T05:40:59.778Z,67.44
2018-08-13T05:41:59.748Z,67.82
2018-08-13T05:42:59.585Z,68.01
2018-08-13T05:43:59.642Z,66.77
2018-08-13T05:44:59.647Z,68.21
2018-08-13T05:48:11.445Z,70.64
2018-08-13T05:51:59.660Z,64.79
2018-08-13T05:52:59.457Z,63.06
2018-08-13T05:54:00.805Z,62.30
2018-08-13T05:54:59.946Z,62.49
2018-08-13T05:55:59.481Z,62.59
2018-08-13T05:56:59.252Z,63.16
2018-08-13T05:57:59.225Z,65.20
2018-08-13T05:58:59.378Z,68.46
2018-08-13T05:59:59.655Z,70.57
2018-08-13T06:00:59.397Z,70.38
2018-08-13T06:01:59.671Z,70.67
2018-08-13T06:02:59.333Z,72.39
2018-08-13T06:03:59.157Z,72.68
2018-08-13T06:04:59.144Z,70.19
2018-08-13T06:05:59.180Z,73.55
2018-08-13T06:06:59.146Z,70.99
2018-08-13T06:07:59.147Z,80.30
2018-08-13T06:08:59.401Z,86.44
2018-08-13T06:09:59.121Z,97.47
2018-08-13T06:10:59.086Z,95.55
2018-08-13T06:11:59.121Z,97.76
2018-08-13T06:14:00.594Z,99.99
2018-08-13T06:15:59.769Z,99.99
2018-08-13T06:16:58.970Z,99.99
2018-08-13T06:17:59.042Z,99.99
2018-08-13T06:18:59.077Z,99.99
2018-08-13T06:19:58.937Z,99.63
2018-08-13T06:21:00.415Z,99.99
2018-08-13T06:21:59.462Z,99.63
2018-08-13T06:22:59.199Z,99.59
2018-08-13T06:24:59.969Z,96.75
2018-08-13T06:25:58.854Z,94.54
2018-08-13T06:26:58.848Z,97.24
2018-08-13T06:27:58.836Z,90.02
2018-08-13T06:28:58.843Z,91.08
2018-08-13T06:29:59.121Z,92.43
2018-08-13T06:30:58.802Z,88.62
2018-08-13T06:31:58.775Z,89.10
2018-08-13T06:32:58.844Z,95.07
2018-08-13T06:33:58.792Z,93.62
2018-08-13T06:34:58.741Z,93.24
2018-08-13T06:35:58.789Z,89.29
2018-08-13T06:36:59.083Z,88.43
2018-08-13T06:37:58.773Z,87.85
2018-08-13T06:40:58.673Z,88.71
2018-08-13T06:41:58.874Z,84.10
2018-08-13T06:42:58.945Z,79.00
2018-08-13T06:43:58.645Z,83.37
2018-08-13T06:44:58.626Z,85.39
2018-08-13T06:45:58.618Z,82.98
2018-08-13T06:46:58.659Z,88.76
2018-08-13T06:47:58.590Z,86.59
2018-08-13T06:48:58.892Z,79.17
2018-08-13T06:49:58.569Z,81.96
2018-08-13T06:50:58.551Z,74.49
2018-08-13T06:51:58.532Z,75.55
2018-08-13T06:53:58.565Z,72.85
2018-08-13T06:54:58.503Z,74.14
2018-08-13T06:55:58.792Z,75.78
2018-08-13T06:56:58.480Z,74.82
2018-08-13T06:59:58.453Z,68.74
2018-08-13T07:00:59.852Z,68.10
2018-08-13T07:01:58.715Z,67.33
2018-08-13T07:03:58.445Z,65.91
2018-08-13T07:04:58.391Z,66.20
2018-08-13T07:05:58.575Z,64.18
2018-08-13T07:08:38.131Z,65.24
2018-08-13T07:08:58.536Z,63.73
2018-08-13T07:09:58.327Z,62.57
2018-08-13T07:10:58.312Z,61.41
2018-08-13T07:15:58.469Z,62.95
2018-08-13T07:16:58.488Z,60.06
2018-08-13T07:17:58.297Z,61.41
2018-08-13T07:18:58.231Z,59.51
2018-08-13T07:19:58.515Z,60.38
2018-08-13T07:20:58.211Z,60.09
2018-08-13T07:21:58.208Z,58.73
2018-08-13T07:22:58.496Z,58.35
2018-08-13T07:23:58.176Z,57.87
2018-08-13T07:24:58.181Z,60.38
2018-08-13T07:25:58.162Z,59.31
2018-08-13T07:26:58.443Z,59.02
2018-08-13T07:27:58.531Z,57.70
2018-08-13T07:28:58.129Z,56.63
2018-08-13T07:29:58.115Z,56.73
2018-08-13T07:30:58.159Z,58.02
2018-08-13T07:31:58.092Z,55.99
2018-08-13T07:32:58.095Z,56.95
2018-08-13T07:33:58.508Z,55.24
2018-08-13T07:34:58.060Z,55.05
2018-08-13T07:35:58.161Z,53.59
2018-08-13T07:36:58.042Z,53.02
2018-08-13T07:37:58.027Z,53.23
2018-08-13T07:38:58.029Z,52.66
2018-08-13T07:39:58.012Z,52.17
2018-08-13T07:40:58.305Z,51.01
2018-08-13T07:41:58.247Z,51.13
2018-08-13T07:42:57.982Z,51.52
2018-08-13T07:43:58.612Z,50.35
2018-08-13T07:44:58.579Z,49.32
2018-08-13T07:45:57.950Z,49.61
2018-08-13T07:47:58.300Z,48.64
2018-08-13T07:49:57.918Z,50.02
2018-08-13T07:50:57.903Z,50.04
2018-08-13T07:51:58.360Z,48.20
2018-08-13T07:52:57.885Z,48.88
2018-08-13T07:53:57.922Z,49.19
2018-08-13T07:54:58.772Z,49.87
2018-08-13T07:55:57.868Z,48.52
2018-08-13T07:56:57.848Z,48.13
2018-08-13T07:57:57.902Z,49.00
2018-08-13T07:58:57.838Z,48.90
2018-08-13T07:59:57.851Z,48.22
2018-08-13T08:00:57.825Z,48.44
2018-08-13T08:01:58.110Z,48.22
2018-08-13T08:02:57.796Z,48.42
2018-08-13T08:03:58.037Z,49.68
2018-08-13T08:04:57.793Z,48.35
2018-08-13T08:05:57.780Z,48.44
2018-08-13T08:06:57.766Z,48.42
2018-08-13T08:07:57.754Z,48.22
2018-08-13T08:08:58.045Z,47.47
2018-08-13T08:09:57.786Z,47.18
2018-08-13T08:10:57.740Z,47.38
2018-08-13T08:12:57.777Z,46.64
2018-08-13T08:13:57.712Z,45.57
2018-08-13T08:14:58.069Z,44.92
2018-08-13T08:16:57.729Z,44.74
2018-08-13T08:17:58.942Z,44.55
2018-08-13T08:19:57.658Z,44.62
2018-08-13T08:21:58.006Z,44.24
2018-08-13T08:22:58.809Z,43.19
2018-08-13T08:23:57.683Z,41.63
2018-08-13T08:24:57.685Z,42.50
2018-08-13T08:25:57.641Z,44.38
2018-08-13T08:26:57.672Z,44.59
2018-08-13T08:27:57.677Z,42.74
2018-08-13T08:28:58.204Z,40.89
2018-08-13T08:29:58.194Z,40.41
2018-08-13T08:30:58.189Z,40.80
2018-08-13T08:31:57.577Z,39.22
2018-08-13T08:32:57.572Z,40.48
2018-08-13T08:33:57.869Z,39.70
2018-08-13T08:34:59.343Z,40.70
2018-08-13T08:35:57.610Z,40.58
2018-08-13T08:36:57.536Z,39.70
2018-08-13T08:37:57.532Z,39.41
2018-08-13T08:38:57.529Z,38.32
2018-08-13T08:39:57.616Z,38.24
2018-08-13T08:40:57.882Z,39.12
2018-08-13T08:42:57.499Z,39.43
2018-08-13T08:43:57.553Z,39.80
2018-08-13T08:44:57.477Z,39.22
2018-08-13T08:45:57.541Z,40.50
2018-08-13T08:46:57.813Z,40.70
2018-08-13T08:47:57.466Z,40.72
2018-08-13T08:48:57.455Z,38.38
2018-08-13T08:49:57.448Z,36.80
2018-08-13T08:50:57.442Z,38.75
2018-08-13T08:53:57.931Z,36.51
2018-08-13T08:54:57.426Z,37.60
2018-08-13T08:55:58.022Z,37.52
2018-08-13T08:56:58.835Z,38.10
2018-08-13T08:58:23.344Z,37.02
2018-08-13T09:00:57.695Z,36.33
2018-08-13T09:02:57.363Z,36.92
2018-08-13T09:03:57.369Z,36.02
2018-08-13T09:04:57.376Z,36.80
2018-08-13T09:05:57.442Z,39.06
2018-08-13T09:07:00.389Z,36.45
2018-08-13T09:07:57.651Z,36.45
2018-08-13T09:08:57.389Z,37.04
2018-08-13T09:09:57.332Z,36.47
2018-08-13T09:10:57.324Z,35.98
2018-08-13T09:11:58.933Z,36.08
2018-08-13T09:12:57.334Z,34.73
2018-08-13T09:13:57.366Z,35.18
2018-08-13T09:14:57.656Z,36.27
2018-08-13T09:15:57.317Z,36.19
2018-08-13T09:17:30.501Z,34.71
2018-08-13T09:17:57.535Z,36.10
2018-08-13T09:19:22.993Z,36.19
2018-08-13T09:19:57.278Z,35.80
2018-08-13T09:20:57.359Z,34.71
2018-08-13T09:21:57.631Z,36.00
2018-08-13T09:22:57.293Z,35.59
2018-08-13T09:23:57.260Z,34.69
2018-08-13T09:24:57.313Z,35.69
2018-08-13T09:25:58.676Z,36.78
2018-08-13T09:26:57.332Z,37.37
2018-08-13T09:27:57.241Z,36.02
2018-08-13T09:28:57.544Z,36.82
2018-08-13T09:29:57.247Z,34.77
2018-08-13T09:30:57.227Z,36.44
2018-08-13T09:31:57.320Z,34.58
2018-08-13T09:32:57.899Z,36.15
2018-08-13T09:34:57.428Z,35.14
2018-08-13T09:35:57.520Z,35.12
2018-08-13T09:36:57.218Z,35.80
2018-08-13T09:37:57.270Z,36.57
2018-08-13T09:38:57.207Z,36.86
2018-08-13T09:40:30.410Z,36.55
2018-08-13T09:40:58.712Z,36.80
2018-08-13T09:41:58.682Z,37.41
2018-08-13T09:42:58.157Z,36.84
2018-08-13T09:43:57.198Z,36.70
2018-08-13T09:44:57.183Z,37.02
2018-08-13T09:45:57.179Z,35.60
2018-08-13T09:50:58.069Z,37.55
2018-08-13T09:52:57.207Z,37.19
2018-08-13T09:53:57.199Z,36.21
2018-08-13T09:54:57.139Z,36.58
2018-08-13T09:55:57.136Z,37.35
2018-08-13T09:56:58.345Z,38.63
2018-08-13T09:57:57.136Z,36.82
2018-08-13T09:58:57.124Z,35.72
2018-08-13T09:59:57.143Z,35.74
2018-08-13T10:00:57.122Z,36.04
2018-08-13T10:01:57.119Z,36.72
2018-08-13T10:02:57.435Z,35.45
2018-08-13T10:03:57.148Z,36.16
2018-08-13T10:04:57.160Z,34.03
2018-08-13T10:06:57.715Z,35.25
2018-08-13T10:07:57.699Z,34.47
2018-08-13T10:08:57.599Z,36.13
2018-08-13T10:10:57.170Z,34.39
2018-08-13T10:11:57.085Z,34.29
2018-08-13T10:12:57.132Z,34.28
2018-08-13T10:13:57.075Z,34.67
2018-08-13T10:14:57.393Z,35.14
2018-08-13T10:15:57.334Z,36.49
2018-08-13T10:16:57.208Z,36.96
2018-08-13T10:18:05.394Z,37.15
2018-08-13T10:18:57.318Z,36.35
2018-08-13T10:19:57.450Z,36.82
2018-08-13T10:21:06.437Z,38.09
2018-08-13T10:21:57.456Z,37.50
2018-08-13T10:22:57.102Z,38.28
2018-08-13T10:23:57.043Z,38.96
2018-08-13T10:25:57.028Z,38.56
2018-08-13T10:26:57.026Z,38.75
2018-08-13T10:27:57.320Z,39.53
2018-08-13T10:28:57.167Z,39.53
2018-08-13T10:29:57.075Z,39.53
2018-08-13T10:30:57.286Z,39.53
2018-08-13T10:31:57.133Z,39.31
2018-08-13T10:33:57.338Z,39.70
2018-08-13T10:38:56.973Z,40.88
2018-08-13T10:39:57.637Z,40.27
2018-08-13T10:40:58.733Z,39.98
2018-08-13T10:41:57.632Z,40.64
2018-08-13T10:42:57.086Z,41.42
2018-08-13T10:43:56.970Z,41.32
2018-08-13T10:44:57.488Z,41.13
2018-08-13T10:45:56.947Z,41.80
2018-08-13T10:46:57.037Z,42.11
2018-08-13T10:47:57.283Z,41.90
2018-08-13T10:48:56.906Z,43.36
2018-08-13T10:49:57.004Z,42.39
2018-08-13T10:50:56.923Z,43.07
2018-08-13T10:51:56.932Z,42.97
2018-08-13T10:52:56.951Z,43.77
2018-08-13T10:54:58.080Z,43.87
2018-08-13T10:56:56.907Z,44.74
2018-08-13T10:57:56.856Z,44.72
2018-08-13T10:58:56.863Z,44.62
2018-08-13T10:59:56.848Z,45.40
2018-08-13T11:00:57.447Z,45.18
2018-08-13T11:01:58.597Z,45.38
2018-08-13T11:02:56.918Z,44.12
2018-08-13T11:04:03.096Z,44.41
2018-08-13T11:04:56.808Z,44.79
2018-08-13T11:05:57.008Z,44.19
2018-08-13T11:07:56.798Z,45.65
2018-08-13T11:08:57.149Z,45.65
2018-08-13T11:09:56.785Z,44.78
2018-08-13T11:11:04.355Z,44.58
2018-08-13T11:11:56.872Z,44.68
2018-08-13T11:12:56.972Z,44.37
2018-08-13T11:13:57.467Z,44.97
2018-08-13T11:14:58.256Z,45.43
2018-08-13T11:15:58.457Z,45.04
2018-08-13T11:16:56.847Z,45.82
2018-08-13T11:17:57.413Z,46.28
2018-08-13T11:19:56.766Z,45.89
2018-08-13T11:20:56.705Z,46.48
2018-08-13T11:22:57.422Z,46.77
2018-08-13T11:24:02.967Z,46.65
2018-08-13T11:24:57.100Z,46.38
2018-08-13T11:26:00.069Z,46.58
2018-08-13T11:26:56.965Z,47.03
2018-08-13T11:27:57.252Z,47.72
2018-08-13T11:28:57.562Z,48.20
2018-08-13T11:29:56.716Z,46.55
2018-08-13T11:30:58.190Z,46.94
2018-08-13T11:31:56.631Z,47.42
2018-08-13T11:32:56.618Z,47.81
2018-08-13T11:33:56.811Z,47.03
2018-08-13T11:34:57.540Z,47.42
2018-08-13T11:35:56.847Z,47.72
2018-08-13T11:37:56.772Z,48.49
2018-08-13T11:38:56.582Z,48.57
2018-08-13T11:39:56.551Z,49.15
2018-08-13T11:40:56.841Z,49.15
2018-08-13T11:41:56.587Z,49.54
2018-08-13T11:43:56.521Z,50.41
2018-08-13T11:44:56.516Z,50.50
2018-08-13T11:45:56.509Z,50.02
2018-08-13T11:46:56.845Z,50.50
2018-08-13T11:48:56.886Z,51.86
2018-08-13T11:49:56.460Z,51.47
2018-08-13T11:51:56.506Z,52.22
2018-08-13T11:52:56.492Z,52.42
2018-08-13T11:53:56.782Z,53.09
2018-08-13T11:55:56.413Z,54.35
2018-08-13T11:56:56.402Z,54.81
2018-08-13T11:57:56.389Z,55.98
2018-08-13T11:59:56.729Z,58.17
2018-08-13T12:00:57.376Z,58.78
2018-08-13T12:01:56.457Z,60.24
2018-08-13T12:02:56.670Z,60.04
2018-08-13T12:03:57.367Z,60.11
2018-08-13T12:04:57.313Z,59.91
2018-08-13T12:05:57.233Z,59.91
2018-08-13T12:06:56.371Z,60.33
2018-08-13T12:07:56.313Z,59.82
2018-08-13T12:08:56.325Z,60.11
2018-08-13T12:09:56.454Z,60.78
2018-08-13T12:14:56.794Z,63.69
2018-08-13T12:16:56.228Z,63.98
2018-08-13T12:17:56.313Z,64.75
2018-08-13T12:18:57.621Z,64.75
2018-08-13T12:19:56.192Z,66.20
2018-08-13T12:20:56.238Z,66.50
2018-08-13T12:21:56.770Z,67.18
2018-08-13T12:22:56.442Z,67.85
2018-08-13T12:23:56.527Z,69.01
2018-08-13T12:24:57.133Z,71.82
2018-08-13T12:25:57.227Z,72.98
2018-08-13T12:26:56.806Z,71.72
2018-08-13T12:27:56.126Z,74.43
2018-08-13T12:28:56.483Z,74.21
2018-08-13T12:29:56.104Z,73.72
2018-08-13T12:30:56.102Z,78.27
2018-08-13T12:31:56.091Z,75.95
2018-08-13T12:32:56.082Z,80.98
2018-08-13T12:33:56.116Z,77.88
2018-08-13T12:39:56.510Z,84.42
2018-08-13T12:40:59.044Z,90.80
2018-08-13T12:41:56.017Z,88.29
2018-08-13T12:42:56.293Z,89.15
2018-08-13T12:43:56.044Z,90.80
2018-08-13T12:44:55.986Z,93.60
2018-08-13T12:45:56.032Z,94.24
2018-08-13T12:46:56.047Z,94.72
2018-08-13T12:47:56.033Z,94.91
2018-08-13T12:48:55.997Z,95.54
2018-08-13T12:49:56.289Z,96.22
2018-08-13T12:50:55.992Z,96.31
2018-08-13T12:51:56.018Z,96.03
2018-08-13T12:52:55.937Z,97.67
2018-08-13T12:53:55.903Z,96.51
2018-08-13T12:54:55.878Z,97.28
2018-08-13T12:55:55.874Z,97.28
2018-08-13T12:56:56.158Z,97.52
2018-08-13T12:57:56.006Z,97.28
2018-08-13T12:58:55.927Z,96.80
2018-08-13T12:59:56.086Z,97.38
2018-08-13T13:01:55.988Z,96.89
2018-08-13T13:02:55.787Z,98.54
2018-08-13T13:03:56.090Z,96.22
2018-08-13T13:04:55.811Z,96.31
2018-08-13T13:05:56.511Z,97.47
2018-08-13T13:06:55.957Z,97.77
2018-08-13T13:08:55.830Z,97.42
2018-08-13T13:09:55.723Z,96.84
2018-08-13T13:12:55.918Z,98.00
2018-08-13T13:13:55.694Z,97.14
2018-08-13T13:14:55.676Z,97.14
2018-08-13T13:15:55.711Z,97.62
2018-08-13T13:16:56.158Z,95.68
2018-08-13T13:17:55.643Z,96.46
2018-08-13T13:18:55.636Z,96.66
2018-08-13T13:19:55.642Z,97.04
2018-08-13T13:21:55.664Z,96.56
2018-08-13T13:22:55.894Z,96.66
2018-08-13T13:23:55.900Z,98.20
2018-08-13T13:24:55.590Z,95.88
2018-08-13T13:25:55.567Z,98.58
2018-08-13T13:26:55.558Z,97.33
2018-08-13T13:27:55.620Z,97.14
2018-08-13T13:28:55.548Z,97.91
2018-08-13T13:29:55.880Z,98.68
2018-08-13T13:30:55.534Z,98.58
2018-08-13T13:31:55.508Z,97.62
2018-08-13T13:32:55.503Z,98.00
2018-08-13T13:33:55.476Z,98.49
2018-08-13T13:34:55.537Z,98.49
2018-08-13T13:35:56.281Z,97.81
2018-08-13T13:36:58.548Z,97.33
2018-08-13T13:37:55.504Z,98.10
2018-08-13T13:38:55.597Z,98.34
2018-08-13T13:39:55.418Z,96.36
2018-08-13T13:41:55.749Z,98.00
2018-08-13T13:42:55.468Z,98.78
2018-08-13T13:43:55.462Z,96.94
2018-08-13T13:44:55.407Z,97.42
2018-08-13T13:45:55.630Z,96.46
2018-08-13T13:46:55.359Z,97.42
2018-08-13T13:47:55.721Z,98.78
2018-08-13T13:48:55.352Z,96.36
2018-08-13T13:49:55.374Z,96.84
2018-08-13T13:50:55.522Z,98.30
2018-08-13T13:51:55.649Z,97.33
2018-08-13T13:53:28.546Z,97.42
2018-08-13T13:54:31.907Z,98.25
2018-08-13T13:54:58.438Z,98.63
2018-08-13T13:58:14.069Z,97.04
2018-08-13T13:58:59.259Z,97.77
2018-08-13T13:59:42.899Z,99.02
2018-08-13T14:01:13.262Z,98.35
2018-08-13T14:02:05.513Z,98.15
2018-08-13T14:02:40.055Z,98.63
2018-08-13T14:03:40.126Z,98.63
2018-08-13T14:04:40.796Z,98.54
2018-08-13T14:05:39.800Z,98.44
2018-08-13T14:06:39.790Z,98.44
2018-08-13T14:07:39.788Z,98.15
2018-08-13T14:08:39.768Z,98.73
2018-08-13T14:11:39.734Z,98.25
2018-08-13T14:12:39.732Z,98.63
2018-08-13T14:13:39.782Z,98.93
2018-08-13T14:14:39.722Z,98.25
2018-08-13T14:15:40.369Z,98.63
2018-08-13T14:16:40.079Z,98.54
2018-08-13T14:17:39.756Z,98.35
2018-08-13T14:18:39.685Z,98.54
2018-08-13T14:19:39.721Z,98.63
2018-08-13T14:20:39.645Z,98.73
2018-08-13T14:21:40.004Z,98.25
2018-08-13T14:22:52.390Z,98.44
2018-08-13T14:24:40.434Z,97.91
2018-08-13T14:25:39.692Z,98.10
2018-08-13T14:31:24.944Z,97.28
2018-08-13T14:32:59.509Z,96.80
2018-08-13T14:33:26.620Z,96.22
2018-08-13T14:34:26.235Z,95.73
2018-08-13T14:35:25.403Z,96.60
2018-08-13T14:38:09.922Z,96.31
2018-08-13T14:39:09.794Z,96.31
2018-08-13T14:40:09.704Z,97.77
2018-08-13T14:41:09.684Z,97.96
2018-08-13T14:42:09.670Z,96.99
2018-08-13T14:43:09.976Z,97.86
2018-08-13T14:44:09.703Z,97.77
2018-08-13T14:45:09.953Z,97.23
2018-08-13T14:46:09.829Z,96.94
2018-08-13T14:47:09.621Z,97.33
2018-08-13T14:48:09.674Z,98.10
2018-08-13T14:49:09.914Z,98.00
2018-08-13T14:50:09.655Z,97.91
2018-08-13T14:51:09.695Z,97.91